sensor_id;sensor_type;location;lat;lon;timestamp;pressure;altitude;pressure_sealevel;temperature;humidity
76084;BME280;64789;0.000;0.000;2023-06-24T00:02:09;93730.41;;;21.33;60.33
76084;BME280;64789;0.000;0.000;2023-06-24T00:04:35;93728.84;;;21.30;60.75
76084;BME280;64789;0.000;0.000;2023-06-24T00:07:00;93724.78;;;21.21;60.50
76084;BME280;64789;0.000;0.000;2023-06-24T00:09:26;93729.84;;;21.23;60.53
76084;BME280;64789;0.000;0.000;2023-06-24T00:11:55;93735.53;;;20.98;61.84
76084;BME280;64789;0.000;0.000;2023-06-24T00:14:22;93738.06;;;20.80;62.49
76084;BME280;64789;0.000;0.000;2023-06-24T00:16:50;93733.50;;;20.75;62.57
76084;BME280;64789;0.000;0.000;2023-06-24T00:19:19;93731.69;;;20.68;62.99
76084;BME280;64789;0.000;0.000;2023-06-24T00:21:46;93735.38;;;20.70;63.04
76084;BME280;64789;0.000;0.000;2023-06-24T00:24:12;93734.41;;;20.66;63.37
76084;BME280;64789;0.000;0.000;2023-06-24T00:26:37;93727.41;;;20.55;63.53
76084;BME280;64789;0.000;0.000;2023-06-24T00:29:03;93716.63;;;20.65;62.60
76084;BME280;64789;0.000;0.000;2023-06-24T00:31:28;93727.53;;;20.57;63.17
76084;BME280;64789;0.000;0.000;2023-06-24T00:33:55;93722.38;;;20.54;62.74
76084;BME280;64789;0.000;0.000;2023-06-24T00:36:22;93718.78;;;20.53;62.70
76084;BME280;64789;0.000;0.000;2023-06-24T00:38:48;93718.41;;;20.47;63.17
76084;BME280;64789;0.000;0.000;2023-06-24T00:41:16;93728.03;;;20.54;62.53
76084;BME280;64789;0.000;0.000;2023-06-24T00:43:45;93717.44;;;20.43;63.79
76084;BME280;64789;0.000;0.000;2023-06-24T00:46:11;93724.84;;;20.48;63.36
76084;BME280;64789;0.000;0.000;2023-06-24T00:48:38;93721.78;;;20.32;63.83
76084;BME280;64789;0.000;0.000;2023-06-24T00:51:03;93719.34;;;20.26;63.94
76084;BME280;64789;0.000;0.000;2023-06-24T00:53:28;93717.88;;;20.14;64.84
76084;BME280;64789;0.000;0.000;2023-06-24T00:55:55;93725.00;;;20.15;64.23
76084;BME280;64789;0.000;0.000;2023-06-24T00:58:21;93724.44;;;20.05;64.63
76084;BME280;64789;0.000;0.000;2023-06-24T01:00:47;93726.53;;;19.93;65.12
76084;BME280;64789;0.000;0.000;2023-06-24T01:03:26;93725.91;;;19.94;63.98
76084;BME280;64789;0.000;0.000;2023-06-24T01:05:52;93714.06;;;19.98;64.52
76084;BME280;64789;0.000;0.000;2023-06-24T01:08:18;93717.50;;;20.19;64.00
76084;BME280;64789;0.000;0.000;2023-06-24T01:10:48;93726.50;;;20.16;63.67
76084;BME280;64789;0.000;0.000;2023-06-24T01:13:17;93724.78;;;19.99;64.42
76084;BME280;64789;0.000;0.000;2023-06-24T01:15:43;93723.94;;;19.85;65.07
76084;BME280;64789;0.000;0.000;2023-06-24T01:20:52;93714.34;;;19.55;65.92
76084;BME280;64789;0.000;0.000;2023-06-24T01:23:25;93713.19;;;19.49;66.11
76084;BME280;64789;0.000;0.000;2023-06-24T01:26:14;93706.44;;;19.54;65.56
76084;BME280;64789;0.000;0.000;2023-06-24T01:34:46;93716.81;;;19.73;65.55
76084;BME280;64789;0.000;0.000;2023-06-24T01:36:54;93707.16;;;19.66;65.06
76084;BME280;64789;0.000;0.000;2023-06-24T01:39:20;93699.72;;;20.19;61.99
76084;BME280;64789;0.000;0.000;2023-06-24T01:41:51;93705.50;;;20.21;62.13
76084;BME280;64789;0.000;0.000;2023-06-24T01:44:19;93697.94;;;20.49;61.38
76084;BME280;64789;0.000;0.000;2023-06-24T01:46:46;93708.66;;;20.50;62.09
76084;BME280;64789;0.000;0.000;2023-06-24T01:49:14;93693.28;;;20.42;61.96
76084;BME280;64789;0.000;0.000;2023-06-24T01:51:41;93696.34;;;20.46;61.55
76084;BME280;64789;0.000;0.000;2023-06-24T01:54:15;93692.44;;;20.64;60.62
76084;BME280;64789;0.000;0.000;2023-06-24T01:56:44;93695.53;;;20.68;60.96
76084;BME280;64789;0.000;0.000;2023-06-24T01:59:13;93688.88;;;20.64;61.04
76084;BME280;64789;0.000;0.000;2023-06-24T02:01:39;93681.16;;;20.78;60.92
76084;BME280;64789;0.000;0.000;2023-06-24T02:04:06;93687.44;;;20.76;60.74
76084;BME280;64789;0.000;0.000;2023-06-24T02:06:33;93691.59;;;20.87;60.38
76084;BME280;64789;0.000;0.000;2023-06-24T02:09:01;93680.16;;;20.98;60.19
76084;BME280;64789;0.000;0.000;2023-06-24T02:11:28;93683.72;;;20.85;60.40
76084;BME280;64789;0.000;0.000;2023-06-24T02:13:55;93691.53;;;20.98;59.71
76084;BME280;64789;0.000;0.000;2023-06-24T02:16:21;93685.81;;;21.10;59.74
76084;BME280;64789;0.000;0.000;2023-06-24T02:18:47;93698.06;;;21.01;59.93
76084;BME280;64789;0.000;0.000;2023-06-24T02:21:14;93711.44;;;21.24;59.16
76084;BME280;64789;0.000;0.000;2023-06-24T02:23:41;93722.38;;;21.04;59.98
76084;BME280;64789;0.000;0.000;2023-06-24T02:26:07;93723.81;;;20.91;60.59
76084;BME280;64789;0.000;0.000;2023-06-24T02:28:34;93732.88;;;20.76;60.65
76084;BME280;64789;0.000;0.000;2023-06-24T02:31:02;93731.00;;;20.56;62.21
76084;BME280;64789;0.000;0.000;2023-06-24T02:33:28;93746.34;;;20.39;62.35
76084;BME280;64789;0.000;0.000;2023-06-24T02:35:53;93747.09;;;20.28;63.08
76084;BME280;64789;0.000;0.000;2023-06-24T02:38:19;93762.41;;;20.00;64.41
76084;BME280;64789;0.000;0.000;2023-06-24T02:40:46;93769.06;;;19.81;65.15
76084;BME280;64789;0.000;0.000;2023-06-24T02:43:13;93771.53;;;19.75;66.16
76084;BME280;64789;0.000;0.000;2023-06-24T02:45:38;93777.44;;;19.56;66.23
76084;BME280;64789;0.000;0.000;2023-06-24T02:48:05;93782.50;;;19.25;67.49
76084;BME280;64789;0.000;0.000;2023-06-24T02:50:34;93792.09;;;19.20;67.79
76084;BME280;64789;0.000;0.000;2023-06-24T02:53:01;93802.28;;;19.13;68.08
76084;BME280;64789;0.000;0.000;2023-06-24T02:55:31;93814.72;;;19.08;68.43
76084;BME280;64789;0.000;0.000;2023-06-24T02:58:00;93814.91;;;19.22;68.19
76084;BME280;64789;0.000;0.000;2023-06-24T03:00:45;93803.91;;;19.16;68.40
76084;BME280;64789;0.000;0.000;2023-06-24T03:03:46;93805.25;;;19.15;68.50
76084;BME280;64789;0.000;0.000;2023-06-24T03:06:16;93795.53;;;19.18;68.66
76084;BME280;64789;0.000;0.000;2023-06-24T03:08:44;93802.16;;;19.11;69.03
76084;BME280;64789;0.000;0.000;2023-06-24T03:11:12;93797.94;;;19.33;67.72
76084;BME280;64789;0.000;0.000;2023-06-24T03:13:37;93799.97;;;19.10;68.86
76084;BME280;64789;0.000;0.000;2023-06-24T03:16:25;93800.72;;;18.89;69.45
76084;BME280;64789;0.000;0.000;2023-06-24T03:18:58;93800.84;;;18.91;69.70
76084;BME280;64789;0.000;0.000;2023-06-24T03:21:24;93802.47;;;18.94;69.13
76084;BME280;64789;0.000;0.000;2023-06-24T03:23:55;93799.53;;;18.71;70.69
76084;BME280;64789;0.000;0.000;2023-06-24T03:26:22;93805.19;;;18.71;70.76
76084;BME280;64789;0.000;0.000;2023-06-24T03:28:48;93807.81;;;18.78;70.56
76084;BME280;64789;0.000;0.000;2023-06-24T03:31:16;93815.16;;;18.93;70.46
76084;BME280;64789;0.000;0.000;2023-06-24T03:33:42;93814.06;;;18.98;70.55
76084;BME280;64789;0.000;0.000;2023-06-24T03:36:11;93810.41;;;19.07;70.32
76084;BME280;64789;0.000;0.000;2023-06-24T03:38:37;93815.94;;;19.05;70.76
76084;BME280;64789;0.000;0.000;2023-06-24T03:41:02;93826.78;;;19.09;70.54
76084;BME280;64789;0.000;0.000;2023-06-24T03:43:28;93822.34;;;19.06;70.28
76084;BME280;64789;0.000;0.000;2023-06-24T03:45:54;93838.06;;;18.97;71.51
76084;BME280;64789;0.000;0.000;2023-06-24T03:48:20;93852.78;;;18.84;71.81
76084;BME280;64789;0.000;0.000;2023-06-24T03:50:46;93857.91;;;18.97;71.75
76084;BME280;64789;0.000;0.000;2023-06-24T03:53:11;93856.53;;;18.98;71.56
76084;BME280;64789;0.000;0.000;2023-06-24T03:55:37;93850.19;;;19.09;71.05
76084;BME280;64789;0.000;0.000;2023-06-24T03:58:03;93844.53;;;19.09;71.37
76084;BME280;64789;0.000;0.000;2023-06-24T04:00:29;93844.56;;;19.21;71.17
76084;BME280;64789;0.000;0.000;2023-06-24T04:02:55;93848.28;;;19.23;71.16
76084;BME280;64789;0.000;0.000;2023-06-24T04:05:20;93850.41;;;19.34;71.06
76084;BME280;64789;0.000;0.000;2023-06-24T04:07:48;93839.50;;;19.40;70.53
76084;BME280;64789;0.000;0.000;2023-06-24T04:10:16;93827.69;;;19.44;71.30
76084;BME280;64789;0.000;0.000;2023-06-24T04:12:43;93817.59;;;19.52;69.74
76084;BME280;64789;0.000;0.000;2023-06-24T04:15:09;93823.78;;;19.60;69.81
76084;BME280;64789;0.000;0.000;2023-06-24T04:17:35;93826.22;;;19.66;70.27
76084;BME280;64789;0.000;0.000;2023-06-24T04:20:01;93830.56;;;19.67;71.13
76084;BME280;64789;0.000;0.000;2023-06-24T04:22:29;93840.03;;;19.72;71.62
76084;BME280;64789;0.000;0.000;2023-06-24T04:24:57;93836.84;;;19.77;70.15
76084;BME280;64789;0.000;0.000;2023-06-24T04:27:23;93833.66;;;19.83;71.35
76084;BME280;64789;0.000;0.000;2023-06-24T04:29:49;93839.59;;;19.87;71.16
76084;BME280;64789;0.000;0.000;2023-06-24T04:32:14;93836.88;;;19.89;71.43
76084;BME280;64789;0.000;0.000;2023-06-24T04:34:40;93849.19;;;19.93;72.00
76084;BME280;64789;0.000;0.000;2023-06-24T04:37:06;93839.97;;;19.93;71.94
76084;BME280;64789;0.000;0.000;2023-06-24T04:39:31;93838.34;;;19.90;72.76
76084;BME280;64789;0.000;0.000;2023-06-24T04:41:57;93822.69;;;19.89;73.08
76084;BME280;64789;0.000;0.000;2023-06-24T04:44:22;93836.16;;;20.00;72.73
76084;BME280;64789;0.000;0.000;2023-06-24T04:46:48;93830.97;;;20.08;72.19
76084;BME280;64789;0.000;0.000;2023-06-24T04:49:13;93824.28;;;20.15;72.53
76084;BME280;64789;0.000;0.000;2023-06-24T04:51:39;93824.06;;;20.22;72.47
76084;BME280;64789;0.000;0.000;2023-06-24T04:54:05;93833.09;;;20.30;72.52
76084;BME280;64789;0.000;0.000;2023-06-24T04:56:33;93831.50;;;20.39;70.29
76084;BME280;64789;0.000;0.000;2023-06-24T04:59:00;93828.63;;;20.51;70.66
76084;BME280;64789;0.000;0.000;2023-06-24T05:01:25;93824.56;;;20.54;70.29
76084;BME280;64789;0.000;0.000;2023-06-24T05:03:51;93832.56;;;20.57;69.31
76084;BME280;64789;0.000;0.000;2023-06-24T05:06:17;93839.47;;;20.66;70.15
76084;BME280;64789;0.000;0.000;2023-06-24T05:08:42;93840.94;;;20.78;71.19
76084;BME280;64789;0.000;0.000;2023-06-24T05:11:08;93840.03;;;20.87;71.14
76084;BME280;64789;0.000;0.000;2023-06-24T05:13:33;93849.25;;;21.00;71.12
76084;BME280;64789;0.000;0.000;2023-06-24T05:15:59;93844.09;;;21.08;71.33
76084;BME280;64789;0.000;0.000;2023-06-24T05:18:24;93842.44;;;21.16;71.97
76084;BME280;64789;0.000;0.000;2023-06-24T05:20:50;93835.84;;;21.25;71.97
76084;BME280;64789;0.000;0.000;2023-06-24T05:23:15;93834.94;;;21.34;72.47
76084;BME280;64789;0.000;0.000;2023-06-24T05:25:41;93844.56;;;21.41;71.30
76084;BME280;64789;0.000;0.000;2023-06-24T05:28:06;93834.88;;;21.46;71.53
76084;BME280;64789;0.000;0.000;2023-06-24T05:30:32;93828.81;;;21.51;69.99
76084;BME280;64789;0.000;0.000;2023-06-24T05:32:57;93825.91;;;21.63;70.51
76084;BME280;64789;0.000;0.000;2023-06-24T05:35:23;93821.38;;;21.72;69.88
76084;BME280;64789;0.000;0.000;2023-06-24T05:37:48;93816.88;;;21.80;69.59
76084;BME280;64789;0.000;0.000;2023-06-24T05:40:14;93815.38;;;21.91;69.78
76084;BME280;64789;0.000;0.000;2023-06-24T05:42:40;93814.84;;;21.94;68.99
76084;BME280;64789;0.000;0.000;2023-06-24T05:45:05;93806.44;;;22.10;69.46
76084;BME280;64789;0.000;0.000;2023-06-24T05:47:32;93803.59;;;22.23;69.57
76084;BME280;64789;0.000;0.000;2023-06-24T05:49:57;93805.81;;;22.39;69.30
76084;BME280;64789;0.000;0.000;2023-06-24T05:52:23;93815.63;;;22.49;69.27
76084;BME280;64789;0.000;0.000;2023-06-24T05:54:49;93809.63;;;22.57;69.26
76084;BME280;64789;0.000;0.000;2023-06-24T05:57:14;93808.25;;;22.71;67.90
76084;BME280;64789;0.000;0.000;2023-06-24T05:59:40;93804.03;;;22.72;67.87
76084;BME280;64789;0.000;0.000;2023-06-24T06:02:06;93804.97;;;22.77;67.92
76084;BME280;64789;0.000;0.000;2023-06-24T06:04:32;93813.19;;;22.84;68.08
76084;BME280;64789;0.000;0.000;2023-06-24T06:06:57;93808.56;;;22.91;67.83
76084;BME280;64789;0.000;0.000;2023-06-24T06:09:23;93801.69;;;22.96;66.18
76084;BME280;64789;0.000;0.000;2023-06-24T06:11:48;93809.34;;;23.07;67.72
76084;BME280;64789;0.000;0.000;2023-06-24T06:14:14;93813.44;;;23.18;68.76
76084;BME280;64789;0.000;0.000;2023-06-24T06:16:39;93816.06;;;23.27;68.10
76084;BME280;64789;0.000;0.000;2023-06-24T06:19:05;93806.31;;;23.32;66.87
76084;BME280;64789;0.000;0.000;2023-06-24T06:21:31;93806.63;;;23.38;66.31
76084;BME280;64789;0.000;0.000;2023-06-24T06:23:57;93801.59;;;23.52;67.92
76084;BME280;64789;0.000;0.000;2023-06-24T06:26:22;93798.13;;;23.54;67.34
76084;BME280;64789;0.000;0.000;2023-06-24T06:28:48;93799.88;;;23.61;65.74
76084;BME280;64789;0.000;0.000;2023-06-24T06:31:15;93808.19;;;23.71;65.69
76084;BME280;64789;0.000;0.000;2023-06-24T06:33:40;93803.66;;;23.66;64.54
76084;BME280;64789;0.000;0.000;2023-06-24T06:36:06;93805.63;;;23.77;64.56
76084;BME280;64789;0.000;0.000;2023-06-24T06:38:32;93813.19;;;23.86;65.26
76084;BME280;64789;0.000;0.000;2023-06-24T06:40:58;93809.31;;;23.95;64.02
76084;BME280;64789;0.000;0.000;2023-06-24T06:43:23;93810.13;;;24.11;63.90
76084;BME280;64789;0.000;0.000;2023-06-24T06:45:49;93810.66;;;24.23;65.73
76084;BME280;64789;0.000;0.000;2023-06-24T06:48:14;93810.66;;;24.23;64.68
76084;BME280;64789;0.000;0.000;2023-06-24T06:50:40;93812.22;;;24.26;63.93
76084;BME280;64789;0.000;0.000;2023-06-24T06:53:06;93812.66;;;24.36;64.34
76084;BME280;64789;0.000;0.000;2023-06-24T06:55:31;93815.06;;;24.42;63.59
76084;BME280;64789;0.000;0.000;2023-06-24T06:57:57;93812.38;;;24.46;62.50
76084;BME280;64789;0.000;0.000;2023-06-24T07:00:22;93810.88;;;24.60;64.42
76084;BME280;64789;0.000;0.000;2023-06-24T07:02:48;93814.56;;;24.63;62.37
76084;BME280;64789;0.000;0.000;2023-06-24T07:05:14;93807.47;;;24.64;61.41
76084;BME280;64789;0.000;0.000;2023-06-24T07:07:39;93809.22;;;24.71;63.00
76084;BME280;64789;0.000;0.000;2023-06-24T07:10:05;93819.00;;;24.82;62.77
76084;BME280;64789;0.000;0.000;2023-06-24T07:12:31;93815.75;;;24.89;62.62
76084;BME280;64789;0.000;0.000;2023-06-24T07:14:57;93824.50;;;24.93;61.59
76084;BME280;64789;0.000;0.000;2023-06-24T07:17:22;93826.66;;;25.10;62.55
76084;BME280;64789;0.000;0.000;2023-06-24T07:19:48;93825.53;;;25.17;62.03
76084;BME280;64789;0.000;0.000;2023-06-24T07:22:14;93814.34;;;25.23;61.08
76084;BME280;64789;0.000;0.000;2023-06-24T07:24:41;93812.47;;;25.30;60.44
76084;BME280;64789;0.000;0.000;2023-06-24T07:27:06;93815.75;;;25.40;60.61
76084;BME280;64789;0.000;0.000;2023-06-24T07:29:32;93811.78;;;25.47;60.16
76084;BME280;64789;0.000;0.000;2023-06-24T07:31:58;93817.09;;;25.55;59.79
76084;BME280;64789;0.000;0.000;2023-06-24T07:34:23;93821.09;;;25.65;60.21
76084;BME280;64789;0.000;0.000;2023-06-24T07:36:49;93812.81;;;25.73;60.93
76084;BME280;64789;0.000;0.000;2023-06-24T07:39:16;93825.28;;;25.80;60.24
76084;BME280;64789;0.000;0.000;2023-06-24T07:41:42;93814.88;;;25.88;60.31
76084;BME280;64789;0.000;0.000;2023-06-24T07:44:08;93823.94;;;26.00;60.43
76084;BME280;64789;0.000;0.000;2023-06-24T07:46:34;93826.31;;;26.06;59.72
76084;BME280;64789;0.000;0.000;2023-06-24T07:48:59;93816.91;;;26.03;58.81
76084;BME280;64789;0.000;0.000;2023-06-24T07:51:25;93814.19;;;26.07;58.35
76084;BME280;64789;0.000;0.000;2023-06-24T07:53:51;93826.53;;;26.12;58.79
76084;BME280;64789;0.000;0.000;2023-06-24T07:56:16;93821.13;;;26.20;59.05
76084;BME280;64789;0.000;0.000;2023-06-24T07:58:42;93824.38;;;26.30;58.08
76084;BME280;64789;0.000;0.000;2023-06-24T08:01:07;93819.69;;;26.39;56.14
76084;BME280;64789;0.000;0.000;2023-06-24T08:03:33;93827.22;;;26.48;57.13
76084;BME280;64789;0.000;0.000;2023-06-24T08:05:59;93823.34;;;26.41;55.50
76084;BME280;64789;0.000;0.000;2023-06-24T08:08:24;93828.09;;;26.52;58.31
76084;BME280;64789;0.000;0.000;2023-06-24T08:10:52;93831.25;;;26.60;58.55
76084;BME280;64789;0.000;0.000;2023-06-24T08:13:18;93829.84;;;26.61;56.84
76084;BME280;64789;0.000;0.000;2023-06-24T08:15:44;93841.22;;;26.77;57.70
76084;BME280;64789;0.000;0.000;2023-06-24T08:18:10;93840.03;;;26.84;56.90
76084;BME280;64789;0.000;0.000;2023-06-24T08:20:36;93836.72;;;26.92;57.02
76084;BME280;64789;0.000;0.000;2023-06-24T08:23:01;93836.78;;;26.94;56.61
76084;BME280;64789;0.000;0.000;2023-06-24T08:25:27;93830.31;;;26.93;56.16
76084;BME280;64789;0.000;0.000;2023-06-24T08:27:54;93827.13;;;27.05;57.10
76084;BME280;64789;0.000;0.000;2023-06-24T08:30:19;93824.41;;;27.09;56.79
76084;BME280;64789;0.000;0.000;2023-06-24T08:32:45;93836.63;;;27.09;56.63
76084;BME280;64789;0.000;0.000;2023-06-24T08:35:11;93825.41;;;27.17;56.28
76084;BME280;64789;0.000;0.000;2023-06-24T08:37:36;93836.00;;;27.32;56.64
76084;BME280;64789;0.000;0.000;2023-06-24T08:40:03;93823.75;;;27.32;54.08
76084;BME280;64789;0.000;0.000;2023-06-24T08:42:30;93822.44;;;27.35;54.85
76084;BME280;64789;0.000;0.000;2023-06-24T08:44:56;93823.50;;;27.44;55.35
76084;BME280;64789;0.000;0.000;2023-06-24T08:47:23;93827.88;;;27.47;54.93
76084;BME280;64789;0.000;0.000;2023-06-24T08:49:51;93813.47;;;27.45;53.88
76084;BME280;64789;0.000;0.000;2023-06-24T08:52:20;93807.66;;;27.43;50.27
76084;BME280;64789;0.000;0.000;2023-06-24T08:54:50;93809.66;;;27.38;51.47
76084;BME280;64789;0.000;0.000;2023-06-24T08:57:15;93801.25;;;27.44;53.27
76084;BME280;64789;0.000;0.000;2023-06-24T08:59:41;93799.66;;;27.61;52.94
76084;BME280;64789;0.000;0.000;2023-06-24T09:02:07;93802.97;;;27.75;52.04
76084;BME280;64789;0.000;0.000;2023-06-24T09:04:33;93810.38;;;27.82;54.18
76084;BME280;64789;0.000;0.000;2023-06-24T09:06:59;93801.22;;;27.87;53.43
76084;BME280;64789;0.000;0.000;2023-06-24T09:09:25;93798.84;;;27.80;50.42
76084;BME280;64789;0.000;0.000;2023-06-24T09:11:56;93796.19;;;27.88;52.63
76084;BME280;64789;0.000;0.000;2023-06-24T09:14:23;93805.38;;;28.04;53.70
76084;BME280;64789;0.000;0.000;2023-06-24T09:16:59;93804.75;;;28.08;51.78
76084;BME280;64789;0.000;0.000;2023-06-24T09:19:29;93799.13;;;28.12;50.95
76084;BME280;64789;0.000;0.000;2023-06-24T09:21:55;93797.13;;;28.16;50.46
76084;BME280;64789;0.000;0.000;2023-06-24T09:24:21;93802.97;;;28.20;50.61
76084;BME280;64789;0.000;0.000;2023-06-24T09:26:48;93804.69;;;28.29;50.60
76084;BME280;64789;0.000;0.000;2023-06-24T09:29:13;93808.50;;;28.36;49.61
76084;BME280;64789;0.000;0.000;2023-06-24T09:31:48;93810.56;;;28.33;48.93
76084;BME280;64789;0.000;0.000;2023-06-24T09:34:14;93806.22;;;28.32;49.28
76084;BME280;64789;0.000;0.000;2023-06-24T09:36:44;93807.94;;;28.41;50.51
76084;BME280;64789;0.000;0.000;2023-06-24T09:39:12;93813.16;;;28.49;50.62
76084;BME280;64789;0.000;0.000;2023-06-24T09:41:41;93809.78;;;28.56;49.66
76084;BME280;64789;0.000;0.000;2023-06-24T09:44:08;93806.22;;;28.56;48.61
76084;BME280;64789;0.000;0.000;2023-06-24T09:46:34;93816.44;;;28.61;49.07
76084;BME280;64789;0.000;0.000;2023-06-24T09:49:02;93811.28;;;28.57;47.80
76084;BME280;64789;0.000;0.000;2023-06-24T09:51:27;93815.22;;;28.68;49.33
76084;BME280;64789;0.000;0.000;2023-06-24T09:53:53;93813.34;;;28.79;50.79
76084;BME280;64789;0.000;0.000;2023-06-24T09:56:21;93805.50;;;28.81;49.45
76084;BME280;64789;0.000;0.000;2023-06-24T09:58:47;93814.47;;;28.93;49.39
76084;BME280;64789;0.000;0.000;2023-06-24T10:01:13;93813.03;;;28.92;48.38
76084;BME280;64789;0.000;0.000;2023-06-24T10:03:38;93822.59;;;29.01;49.04
76084;BME280;64789;0.000;0.000;2023-06-24T10:06:05;93818.38;;;29.04;49.04
76084;BME280;64789;0.000;0.000;2023-06-24T10:08:31;93808.25;;;29.03;46.94
76084;BME280;64789;0.000;0.000;2023-06-24T10:10:57;93801.94;;;29.08;48.36
76084;BME280;64789;0.000;0.000;2023-06-24T10:13:22;93793.94;;;29.05;46.22
76084;BME280;64789;0.000;0.000;2023-06-24T10:15:51;93786.34;;;28.90;46.67
76084;BME280;64789;0.000;0.000;2023-06-24T10:20:54;93791.16;;;28.83;49.28
76084;BME280;64789;0.000;0.000;2023-06-24T10:23:20;93784.53;;;29.02;48.58
76084;BME280;64789;0.000;0.000;2023-06-24T10:25:47;93774.78;;;29.15;47.57
76084;BME280;64789;0.000;0.000;2023-06-24T10:28:13;93767.13;;;29.24;49.30
76084;BME280;64789;0.000;0.000;2023-06-24T10:30:38;93762.91;;;29.27;48.86
76084;BME280;64789;0.000;0.000;2023-06-24T10:33:04;93760.91;;;29.34;48.96
76084;BME280;64789;0.000;0.000;2023-06-24T10:35:35;93753.03;;;29.36;47.99
76084;BME280;64789;0.000;0.000;2023-06-24T10:38:07;93750.06;;;29.32;48.05
76084;BME280;64789;0.000;0.000;2023-06-24T10:40:39;93754.00;;;29.47;49.21
76084;BME280;64789;0.000;0.000;2023-06-24T10:45:49;93740.19;;;29.39;46.61
76084;BME280;64789;0.000;0.000;2023-06-24T10:48:16;93741.03;;;29.46;47.87
76084;BME280;64789;0.000;0.000;2023-06-24T10:50:41;93730.84;;;29.41;42.52
76084;BME280;64789;0.000;0.000;2023-06-24T10:53:07;93732.94;;;29.38;47.59
76084;BME280;64789;0.000;0.000;2023-06-24T10:55:33;93721.34;;;29.34;45.42
76084;BME280;64789;0.000;0.000;2023-06-24T10:58:09;93732.47;;;29.20;45.69
76084;BME280;64789;0.000;0.000;2023-06-24T11:00:37;93736.13;;;29.22;46.42
76084;BME280;64789;0.000;0.000;2023-06-24T11:03:09;93731.06;;;29.21;47.91
76084;BME280;64789;0.000;0.000;2023-06-24T11:05:37;93730.41;;;28.97;48.80
76084;BME280;64789;0.000;0.000;2023-06-24T11:08:04;93718.81;;;28.93;46.66
76084;BME280;64789;0.000;0.000;2023-06-24T11:10:30;93712.63;;;29.04;47.85
76084;BME280;64789;0.000;0.000;2023-06-24T11:12:56;93723.50;;;29.08;44.43
76084;BME280;64789;0.000;0.000;2023-06-24T11:15:24;93713.00;;;28.91;45.83
76084;BME280;64789;0.000;0.000;2023-06-24T11:17:50;93707.38;;;28.69;47.81
76084;BME280;64789;0.000;0.000;2023-06-24T11:20:16;93703.91;;;28.49;48.00
76084;BME280;64789;0.000;0.000;2023-06-24T11:22:42;93713.44;;;28.30;48.55
76084;BME280;64789;0.000;0.000;2023-06-24T11:25:18;93718.28;;;28.23;48.46
76084;BME280;64789;0.000;0.000;2023-06-24T11:27:44;93717.66;;;28.01;50.94
76084;BME280;64789;0.000;0.000;2023-06-24T11:30:10;93717.50;;;27.97;52.52
76084;BME280;64789;0.000;0.000;2023-06-24T11:32:37;93710.19;;;27.92;51.85
76084;BME280;64789;0.000;0.000;2023-06-24T11:35:04;93714.94;;;27.83;52.86
76084;BME280;64789;0.000;0.000;2023-06-24T11:37:30;93721.25;;;27.78;55.15
76084;BME280;64789;0.000;0.000;2023-06-24T11:40:00;93722.63;;;27.77;54.96
76084;BME280;64789;0.000;0.000;2023-06-24T11:42:27;93728.38;;;27.53;53.93
76084;BME280;64789;0.000;0.000;2023-06-24T11:44:54;93720.41;;;27.52;55.92
76084;BME280;64789;0.000;0.000;2023-06-24T11:47:24;93723.94;;;27.28;55.85
76084;BME280;64789;0.000;0.000;2023-06-24T11:52:15;93712.72;;;27.15;57.86
76084;BME280;64789;0.000;0.000;2023-06-24T11:54:41;93711.94;;;27.12;58.87
76084;BME280;64789;0.000;0.000;2023-06-24T11:57:09;93702.72;;;27.16;57.86
76084;BME280;64789;0.000;0.000;2023-06-24T11:59:38;93700.00;;;26.98;55.96
76084;BME280;64789;0.000;0.000;2023-06-24T12:02:04;93681.66;;;26.86;55.75
76084;BME280;64789;0.000;0.000;2023-06-24T12:04:30;93684.34;;;26.60;55.19
76084;BME280;64789;0.000;0.000;2023-06-24T12:06:56;93684.19;;;26.56;54.35
76084;BME280;64789;0.000;0.000;2023-06-24T12:09:22;93680.50;;;26.53;55.54
76084;BME280;64789;0.000;0.000;2023-06-24T12:11:48;93681.66;;;26.66;54.39
76084;BME280;64789;0.000;0.000;2023-06-24T12:14:14;93666.91;;;26.54;55.09
76084;BME280;64789;0.000;0.000;2023-06-24T12:16:39;93656.94;;;26.55;55.26
76084;BME280;64789;0.000;0.000;2023-06-24T12:19:06;93651.44;;;26.41;56.75
76084;BME280;64789;0.000;0.000;2023-06-24T12:21:31;93642.44;;;26.51;55.44
76084;BME280;64789;0.000;0.000;2023-06-24T12:23:57;93644.38;;;26.44;56.12
76084;BME280;64789;0.000;0.000;2023-06-24T12:26:23;93652.88;;;26.62;55.21
76084;BME280;64789;0.000;0.000;2023-06-24T12:28:48;93654.19;;;26.59;53.98
76084;BME280;64789;0.000;0.000;2023-06-24T12:31:14;93659.28;;;26.60;55.09
76084;BME280;64789;0.000;0.000;2023-06-24T12:33:40;93663.59;;;26.61;53.62
76084;BME280;64789;0.000;0.000;2023-06-24T12:36:06;93666.22;;;26.75;55.19
76084;BME280;64789;0.000;0.000;2023-06-24T12:38:31;93675.06;;;26.61;56.86
76084;BME280;64789;0.000;0.000;2023-06-24T12:40:57;93682.88;;;26.59;55.79
76084;BME280;64789;0.000;0.000;2023-06-24T12:43:23;93689.91;;;26.56;57.50
76084;BME280;64789;0.000;0.000;2023-06-24T12:45:49;93687.72;;;26.54;58.67
76084;BME280;64789;0.000;0.000;2023-06-24T12:48:16;93690.22;;;26.44;58.70
76084;BME280;64789;0.000;0.000;2023-06-24T12:50:42;93683.19;;;26.28;59.12
76084;BME280;64789;0.000;0.000;2023-06-24T12:53:08;93691.94;;;26.32;59.69
76084;BME280;64789;0.000;0.000;2023-06-24T12:55:36;93687.25;;;26.21;60.02
76084;BME280;64789;0.000;0.000;2023-06-24T12:58:02;93701.88;;;26.29;59.43
76084;BME280;64789;0.000;0.000;2023-06-24T13:00:27;93700.25;;;26.24;59.21
76084;BME280;64789;0.000;0.000;2023-06-24T13:02:53;93700.59;;;26.14;59.60
76084;BME280;64789;0.000;0.000;2023-06-24T13:05:19;93703.22;;;26.08;59.65
76084;BME280;64789;0.000;0.000;2023-06-24T13:07:45;93697.06;;;25.96;60.72
76084;BME280;64789;0.000;0.000;2023-06-24T13:10:10;93680.63;;;25.96;61.83
76084;BME280;64789;0.000;0.000;2023-06-24T13:12:36;93674.88;;;25.96;62.29
76084;BME280;64789;0.000;0.000;2023-06-24T13:15:02;93661.75;;;25.89;62.45
76084;BME280;64789;0.000;0.000;2023-06-24T13:17:30;93656.16;;;25.93;63.14
76084;BME280;64789;0.000;0.000;2023-06-24T13:19:56;93647.34;;;25.87;63.10
76084;BME280;64789;0.000;0.000;2023-06-24T13:22:22;93634.50;;;25.88;64.35
76084;BME280;64789;0.000;0.000;2023-06-24T13:24:48;93620.13;;;25.86;62.36